createdAt,value
2018-12-29T00:00:18.816Z,984.63
2018-12-29T00:01:18.852Z,984.63
2018-12-29T00:02:18.894Z,984.63
2018-12-29T00:03:18.982Z,984.65
2018-12-29T00:04:19.027Z,984.72
2018-12-29T00:05:19.015Z,984.73
2018-12-29T00:06:19.078Z,984.72
2018-12-29T00:07:19.096Z,984.77
2018-12-29T00:08:19.162Z,984.76
2018-12-29T00:09:19.205Z,984.80
2018-12-29T00:10:19.235Z,984.75
2018-12-29T00:11:19.254Z,984.77
2018-12-29T00:12:19.294Z,984.75
2018-12-29T00:13:19.336Z,984.77
2018-12-29T00:14:19.418Z,984.76
2018-12-29T00:15:19.428Z,984.71
2018-12-29T00:16:19.461Z,984.75
2018-12-29T00:17:19.593Z,984.77
2018-12-29T00:18:19.533Z,984.77
2018-12-29T00:19:19.641Z,984.79
2018-12-29T00:20:19.614Z,984.79
2018-12-29T00:21:19.670Z,984.80
2018-12-29T00:22:19.698Z,984.81
2018-12-29T00:23:19.740Z,984.84
2018-12-29T00:24:19.824Z,984.90
2018-12-29T00:25:19.846Z,984.87
2018-12-29T00:26:19.855Z,984.90
2018-12-29T00:27:19.894Z,984.98
2018-12-29T00:28:19.935Z,984.93
2018-12-29T00:29:19.975Z,984.92
2018-12-29T00:30:20.058Z,984.93
2018-12-29T00:31:20.061Z,984.99
2018-12-29T00:32:20.109Z,984.96
2018-12-29T00:33:20.133Z,984.97
2018-12-29T00:34:20.171Z,984.99
2018-12-29T00:35:20.234Z,984.99
2018-12-29T00:36:20.255Z,984.97
2018-12-29T00:37:20.293Z,984.98
2018-12-29T00:38:20.345Z,984.99
2018-12-29T00:39:20.376Z,984.96
2018-12-29T00:40:20.443Z,984.96
2018-12-29T00:41:20.490Z,984.96
2018-12-29T00:42:20.490Z,984.92
2018-12-29T00:43:20.533Z,984.92
2018-12-29T00:44:20.571Z,984.89
2018-12-29T00:45:20.634Z,984.89
2018-12-29T00:46:20.677Z,984.91
2018-12-29T00:47:20.696Z,984.87
2018-12-29T00:48:20.737Z,984.86
2018-12-29T00:49:20.772Z,984.87
2018-12-29T00:50:20.842Z,984.89
2018-12-29T00:51:20.849Z,984.91
2018-12-29T00:52:20.912Z,984.93
2018-12-29T00:53:20.920Z,984.94
2018-12-29T00:54:20.976Z,984.97
2018-12-29T00:55:21.047Z,984.93
2018-12-29T00:56:21.061Z,984.98
2018-12-29T00:57:21.090Z,985.03
2018-12-29T00:58:21.127Z,985.10
2018-12-29T00:59:21.169Z,985.13
2018-12-29T01:00:21.259Z,985.17
2018-12-29T01:01:21.252Z,985.15
2018-12-29T01:02:21.298Z,985.23
2018-12-29T01:03:21.334Z,985.26
2018-12-29T01:04:21.377Z,985.24
2018-12-29T01:05:21.435Z,985.24
2018-12-29T01:06:21.449Z,985.25
2018-12-29T01:07:21.544Z,985.23
2018-12-29T01:08:21.544Z,985.32
2018-12-29T01:09:21.576Z,985.33
2018-12-29T01:10:21.636Z,985.33
2018-12-29T01:11:21.691Z,985.37
2018-12-29T01:12:21.685Z,985.35
2018-12-29T01:13:21.734Z,985.34
2018-12-29T01:14:21.860Z,985.39
2018-12-29T01:15:21.802Z,985.37
2018-12-29T01:16:21.865Z,985.38
2018-12-29T01:17:21.881Z,985.40
2018-12-29T01:18:21.947Z,985.41
2018-12-29T01:19:21.971Z,985.38
2018-12-29T01:20:22.045Z,985.40
2018-12-29T01:21:22.100Z,985.37
2018-12-29T01:22:22.089Z,985.38
2018-12-29T01:23:22.135Z,985.40
2018-12-29T01:24:22.160Z,985.45
2018-12-29T01:25:22.209Z,985.47
2018-12-29T01:26:22.259Z,985.53
2018-12-29T01:27:22.300Z,985.55
2018-12-29T01:28:22.333Z,985.56
2018-12-29T01:29:23.063Z,985.58
2018-12-29T01:30:22.400Z,985.64
2018-12-29T01:31:22.443Z,985.64
2018-12-29T01:32:22.509Z,985.68
2018-12-29T01:33:22.554Z,985.67
2018-12-29T01:34:22.558Z,985.69
2018-12-29T01:35:22.603Z,985.64
2018-12-29T01:36:22.643Z,985.62
2018-12-29T01:37:22.779Z,985.55
2018-12-29T01:38:22.737Z,985.51
2018-12-29T01:39:22.814Z,985.50
2018-12-29T01:40:22.818Z,985.48
2018-12-29T01:41:22.843Z,985.51
2018-12-29T01:42:22.905Z,985.54
2018-12-29T01:43:22.920Z,985.56
2018-12-29T01:44:22.963Z,985.57
2018-12-29T01:45:22.999Z,985.56
2018-12-29T01:46:23.064Z,985.53
2018-12-29T01:47:23.099Z,985.51
2018-12-29T01:48:23.114Z,985.52
2018-12-29T01:49:23.165Z,985.52
2018-12-29T01:50:23.202Z,985.52
2018-12-29T01:51:23.243Z,985.54
2018-12-29T01:52:23.304Z,985.51
2018-12-29T01:53:23.318Z,985.51
2018-12-29T01:54:23.359Z,985.49
2018-12-29T01:55:23.401Z,985.47
2018-12-29T01:56:23.438Z,985.48
2018-12-29T01:57:23.506Z,985.48
2018-12-29T01:58:23.572Z,985.47
2018-12-29T01:59:23.560Z,985.50
2018-12-29T02:00:23.600Z,985.46
2018-12-29T02:01:23.645Z,985.46
2018-12-29T02:02:23.741Z,985.49
2018-12-29T02:03:23.754Z,985.46
2018-12-29T02:04:23.787Z,985.46
2018-12-29T02:05:23.804Z,985.48
2018-12-29T02:06:23.846Z,985.44
2018-12-29T02:07:23.892Z,985.44
2018-12-29T02:08:23.979Z,985.43
2018-12-29T02:09:23.993Z,985.35
2018-12-29T02:10:24.005Z,985.36
2018-12-29T02:11:24.046Z,985.38
2018-12-29T02:12:24.083Z,985.34
2018-12-29T02:13:24.123Z,985.34
2018-12-29T02:14:24.187Z,985.34
2018-12-29T02:15:24.928Z,985.37
2018-12-29T02:16:24.244Z,985.33
2018-12-29T02:17:24.281Z,985.28
2018-12-29T02:18:24.322Z,985.33
2018-12-29T02:19:24.385Z,985.33
2018-12-29T02:20:24.407Z,985.33
2018-12-29T02:21:24.446Z,985.33
2018-12-29T02:22:24.483Z,985.29
2018-12-29T02:23:24.529Z,985.30
2018-12-29T02:24:24.589Z,985.31
2018-12-29T02:25:24.613Z,985.25
2018-12-29T02:26:24.653Z,985.22
2018-12-29T02:27:24.693Z,985.20
2018-12-29T02:28:24.722Z,985.21
2018-12-29T02:29:24.793Z,985.24
2018-12-29T02:30:24.843Z,985.23
2018-12-29T02:31:24.850Z,985.27
2018-12-29T02:32:24.887Z,985.25
2018-12-29T02:33:24.932Z,985.35
2018-12-29T02:34:25.015Z,985.34
2018-12-29T02:35:25.036Z,985.31
2018-12-29T02:36:25.063Z,985.31
2018-12-29T02:37:25.105Z,985.42
2018-12-29T02:38:25.133Z,985.42
2018-12-29T02:39:25.191Z,985.44
2018-12-29T02:40:25.227Z,985.43
2018-12-29T02:41:25.258Z,985.47
2018-12-29T02:42:25.292Z,985.47
2018-12-29T02:43:25.359Z,985.41
2018-12-29T02:44:25.367Z,985.38
2018-12-29T02:45:32.818Z,985.37
2018-12-29T02:46:25.451Z,985.37
2018-12-29T02:47:25.484Z,985.43
2018-12-29T02:48:25.548Z,985.40
2018-12-29T02:49:25.578Z,985.42
2018-12-29T02:50:25.629Z,985.41
2018-12-29T02:51:25.671Z,985.41
2018-12-29T02:52:25.695Z,985.43
2018-12-29T02:53:25.727Z,985.42
2018-12-29T02:54:25.768Z,985.47
2018-12-29T02:55:25.805Z,985.42
2018-12-29T02:56:25.873Z,985.49
2018-12-29T02:57:25.890Z,985.46
2018-12-29T02:58:25.926Z,985.45
2018-12-29T02:59:26.053Z,985.47
2018-12-29T03:00:26.006Z,985.50
2018-12-29T03:01:26.093Z,985.38
2018-12-29T03:02:26.087Z,985.41
2018-12-29T03:03:26.125Z,985.38
2018-12-29T03:04:26.170Z,985.37
2018-12-29T03:05:26.207Z,985.31
2018-12-29T03:06:26.403Z,985.36
2018-12-29T03:07:26.284Z,985.32
2018-12-29T03:08:26.334Z,985.27
2018-12-29T03:09:26.365Z,985.26
2018-12-29T03:10:26.404Z,985.23
2018-12-29T03:11:26.469Z,985.26
2018-12-29T03:12:26.487Z,985.25
2018-12-29T03:13:26.526Z,985.21
2018-12-29T03:14:26.600Z,985.22
2018-12-29T03:15:26.601Z,985.16
2018-12-29T03:16:26.664Z,985.16
2018-12-29T03:17:26.705Z,985.19
2018-12-29T03:18:26.721Z,985.23
2018-12-29T03:19:26.766Z,985.19
2018-12-29T03:20:26.800Z,985.20
2018-12-29T03:21:26.859Z,985.21
2018-12-29T03:22:26.881Z,985.18
2018-12-29T03:23:26.926Z,985.20
2018-12-29T03:24:26.989Z,985.19
2018-12-29T03:25:27.008Z,985.14
2018-12-29T03:26:27.078Z,985.19
2018-12-29T03:27:27.079Z,985.19
2018-12-29T03:28:27.119Z,985.17
2018-12-29T03:29:27.156Z,985.15
2018-12-29T03:30:27.208Z,985.20
2018-12-29T03:31:27.291Z,985.15
2018-12-29T03:32:27.308Z,985.15
2018-12-29T03:33:27.313Z,985.11
2018-12-29T03:34:28.059Z,985.09
2018-12-29T03:35:27.404Z,985.09
2018-12-29T03:36:27.441Z,985.09
2018-12-29T03:37:27.528Z,985.06
2018-12-29T03:38:27.520Z,985.04
2018-12-29T03:39:27.555Z,985.06
2018-12-29T03:40:27.587Z,985.08
2018-12-29T03:41:27.630Z,985.08
2018-12-29T03:42:27.707Z,985.08
2018-12-29T03:43:27.714Z,985.05
2018-12-29T03:44:27.761Z,985.01
2018-12-29T03:45:27.792Z,985.00
2018-12-29T03:46:27.833Z,985.00
2018-12-29T03:47:27.893Z,985.02
2018-12-29T03:48:27.926Z,985.05
2018-12-29T03:49:27.999Z,985.07
2018-12-29T03:50:27.996Z,985.01
2018-12-29T03:51:28.036Z,984.95
2018-12-29T03:52:28.069Z,984.96
2018-12-29T03:53:28.142Z,984.93
2018-12-29T03:54:28.145Z,984.96
2018-12-29T03:55:28.190Z,984.94
2018-12-29T03:56:28.250Z,984.97
2018-12-29T03:57:28.269Z,984.98
2018-12-29T03:58:28.333Z,984.96
2018-12-29T03:59:28.362Z,984.90
2018-12-29T04:00:28.387Z,984.87
2018-12-29T04:01:28.432Z,984.87
2018-12-29T04:02:28.464Z,984.86
2018-12-29T04:03:28.531Z,984.90
2018-12-29T04:04:28.555Z,984.97
2018-12-29T04:05:28.588Z,984.99
2018-12-29T04:06:28.628Z,984.94
2018-12-29T04:07:28.664Z,984.96
2018-12-29T04:08:28.730Z,984.93
2018-12-29T04:09:28.750Z,984.91
2018-12-29T04:10:28.792Z,984.97
2018-12-29T04:11:28.825Z,984.91
2018-12-29T04:12:28.888Z,984.87
2018-12-29T04:13:28.947Z,984.82
2018-12-29T04:14:28.988Z,984.80
2018-12-29T04:15:28.985Z,984.80
2018-12-29T04:16:29.042Z,984.78
2018-12-29T04:17:29.063Z,984.78
2018-12-29T04:18:29.128Z,984.78
2018-12-29T04:19:29.340Z,984.81
2018-12-29T04:20:29.191Z,984.86
2018-12-29T04:21:29.226Z,984.81
2018-12-29T04:22:29.265Z,984.84
2018-12-29T04:23:29.332Z,984.80
2018-12-29T04:24:29.342Z,984.77
2018-12-29T04:25:29.385Z,984.77
2018-12-29T04:26:29.423Z,984.73
2018-12-29T04:27:29.459Z,984.68
2018-12-29T04:28:29.553Z,984.63
2018-12-29T04:29:29.598Z,984.55
2018-12-29T04:30:29.580Z,984.51
2018-12-29T04:31:29.626Z,984.51
2018-12-29T04:32:29.661Z,984.49
2018-12-29T04:33:29.703Z,984.50
2018-12-29T04:34:29.768Z,984.53
2018-12-29T04:35:29.777Z,984.52
2018-12-29T04:36:29.821Z,984.59
2018-12-29T04:37:29.905Z,984.60
2018-12-29T04:38:29.898Z,984.63
2018-12-29T04:39:29.994Z,984.62
2018-12-29T04:40:29.982Z,984.68
2018-12-29T04:41:30.019Z,984.72
2018-12-29T04:42:30.064Z,984.71
2018-12-29T04:43:30.108Z,984.72
2018-12-29T04:44:30.173Z,984.71
2018-12-29T04:45:30.198Z,984.70
2018-12-29T04:46:30.225Z,984.69
2018-12-29T04:47:30.261Z,984.75
2018-12-29T04:48:30.299Z,984.79
2018-12-29T04:49:30.374Z,984.88
2018-12-29T04:50:30.384Z,984.86
2018-12-29T04:51:30.419Z,984.87
2018-12-29T04:52:30.463Z,984.90
2018-12-29T04:53:30.500Z,984.86
2018-12-29T04:54:30.569Z,984.92
2018-12-29T04:55:30.599Z,984.96
2018-12-29T04:56:30.615Z,984.94
2018-12-29T04:57:30.659Z,984.90
2018-12-29T04:58:30.697Z,984.88
2018-12-29T04:59:30.738Z,984.88
2018-12-29T05:00:30.805Z,984.90
2018-12-29T05:01:30.824Z,984.88
2018-12-29T05:02:30.900Z,984.93
2018-12-29T05:03:30.902Z,984.92
2018-12-29T05:04:30.940Z,984.92
2018-12-29T05:05:31.011Z,984.93
2018-12-29T05:06:31.046Z,984.93
2018-12-29T05:07:31.069Z,984.89
2018-12-29T05:08:31.101Z,984.88
2018-12-29T05:09:31.255Z,984.94
2018-12-29T05:10:31.175Z,984.93
2018-12-29T05:11:31.258Z,984.97
2018-12-29T05:12:31.258Z,984.99
2018-12-29T05:13:31.295Z,985.03
2018-12-29T05:14:31.341Z,985.05
2018-12-29T05:15:31.394Z,985.08
2018-12-29T05:16:31.442Z,985.11
2018-12-29T05:17:31.487Z,985.14
2018-12-29T05:18:31.493Z,985.12
2018-12-29T05:19:31.542Z,985.14
2018-12-29T05:20:31.586Z,985.16
2018-12-29T05:21:31.637Z,985.18
2018-12-29T05:22:31.681Z,985.21
2018-12-29T05:23:33.550Z,985.23
2018-12-29T05:24:32.581Z,985.27
2018-12-29T05:25:31.812Z,985.32
2018-12-29T05:26:31.815Z,985.32
2018-12-29T05:27:31.873Z,985.36
2018-12-29T05:28:31.893Z,985.39
2018-12-29T05:29:31.936Z,985.42
2018-12-29T05:30:31.971Z,985.42
2018-12-29T05:31:32.007Z,985.41
2018-12-29T05:32:32.097Z,985.45
2018-12-29T05:33:32.094Z,985.47
2018-12-29T05:34:32.204Z,985.50
2018-12-29T05:35:32.180Z,985.51
2018-12-29T05:36:32.216Z,985.51
2018-12-29T05:37:32.269Z,985.50
2018-12-29T05:38:32.290Z,985.51
2018-12-29T05:39:32.331Z,985.48
2018-12-29T05:40:32.373Z,985.58
2018-12-29T05:41:32.410Z,985.62
2018-12-29T05:42:32.531Z,985.64
2018-12-29T05:43:32.496Z,985.66
2018-12-29T05:44:32.534Z,985.71
2018-12-29T05:45:32.577Z,985.74
2018-12-29T05:46:32.614Z,985.80
2018-12-29T05:47:32.672Z,985.85
2018-12-29T05:48:32.688Z,985.82
2018-12-29T05:49:32.727Z,985.82
2018-12-29T05:50:32.768Z,985.82
2018-12-29T05:51:32.809Z,985.83
2018-12-29T05:52:32.914Z,985.95
2018-12-29T05:53:32.889Z,985.97
2018-12-29T05:54:32.924Z,985.95
2018-12-29T05:55:32.967Z,985.91
2018-12-29T05:56:33.007Z,985.89
2018-12-29T05:57:33.073Z,985.86
2018-12-29T05:58:33.114Z,985.87
2018-12-29T05:59:33.210Z,985.90
2018-12-29T06:00:33.171Z,985.88
2018-12-29T06:01:33.209Z,985.91
2018-12-29T06:02:33.281Z,985.89
2018-12-29T06:03:33.302Z,985.92
2018-12-29T06:04:33.324Z,985.98
2018-12-29T06:05:33.372Z,986.00
2018-12-29T06:06:33.440Z,985.96
2018-12-29T06:07:34.048Z,985.89
2018-12-29T06:08:33.500Z,985.87
2018-12-29T06:09:33.531Z,985.87
2018-12-29T06:10:33.561Z,985.96
2018-12-29T06:11:33.599Z,986.04
2018-12-29T06:12:33.638Z,986.09
2018-12-29T06:13:33.699Z,986.14
2018-12-29T06:14:33.719Z,986.17
2018-12-29T06:15:33.762Z,986.16
2018-12-29T06:16:33.798Z,986.14
2018-12-29T06:17:33.845Z,986.17
2018-12-29T06:18:33.898Z,986.20
2018-12-29T06:19:33.918Z,986.20
2018-12-29T06:20:33.956Z,986.19
2018-12-29T06:21:33.996Z,986.16
2018-12-29T06:22:34.048Z,986.19
2018-12-29T06:23:34.103Z,986.18
2018-12-29T06:24:34.183Z,986.18
2018-12-29T06:25:34.159Z,986.15
2018-12-29T06:26:34.207Z,986.12
2018-12-29T06:27:34.241Z,986.17
2018-12-29T06:28:34.316Z,986.12
2018-12-29T06:29:34.318Z,986.17
2018-12-29T06:30:34.353Z,986.14
2018-12-29T06:31:34.492Z,986.11
2018-12-29T06:32:34.437Z,986.16
2018-12-29T06:33:34.497Z,986.08
2018-12-29T06:34:34.541Z,986.12
2018-12-29T06:35:34.558Z,986.14
2018-12-29T06:36:34.608Z,986.16
2018-12-29T06:37:34.640Z,986.11
2018-12-29T06:38:34.670Z,986.15
2018-12-29T06:39:34.745Z,986.16
2018-12-29T06:40:34.761Z,986.15
2018-12-29T06:41:34.794Z,986.20
2018-12-29T06:42:34.830Z,986.17
2018-12-29T06:43:34.879Z,986.17
2018-12-29T06:44:34.937Z,986.13
2018-12-29T06:45:34.953Z,986.11
2018-12-29T06:46:35.356Z,986.08
2018-12-29T06:47:35.048Z,986.06
2018-12-29T06:48:35.072Z,986.05
2018-12-29T06:49:35.143Z,986.00
2018-12-29T06:50:35.156Z,985.98
2018-12-29T06:51:36.046Z,986.02
2018-12-29T06:52:35.231Z,986.00
2018-12-29T06:53:35.272Z,986.01
2018-12-29T06:54:35.337Z,986.01
2018-12-29T06:55:35.370Z,986.00
2018-12-29T06:56:35.390Z,986.00
2018-12-29T06:57:35.432Z,985.99
2018-12-29T06:58:35.469Z,986.00
2018-12-29T06:59:35.510Z,985.99
2018-12-29T07:00:35.583Z,986.00
2018-12-29T07:01:35.588Z,986.07
2018-12-29T07:02:35.626Z,986.03
2018-12-29T07:03:35.673Z,986.06
2018-12-29T07:04:35.706Z,986.11
2018-12-29T07:05:35.771Z,986.09
2018-12-29T07:06:35.786Z,986.13
2018-12-29T07:07:35.824Z,986.12
2018-12-29T07:08:35.873Z,986.07
2018-12-29T07:09:35.917Z,986.04
2018-12-29T07:10:35.988Z,986.02
2018-12-29T07:11:35.991Z,986.04
2018-12-29T07:12:36.076Z,986.03
2018-12-29T07:13:36.067Z,986.06
2018-12-29T07:14:36.116Z,986.09
2018-12-29T07:15:36.172Z,986.10
2018-12-29T07:16:42.289Z,986.07
2018-12-29T07:17:36.233Z,986.12
2018-12-29T07:18:36.264Z,986.14
2018-12-29T07:19:36.305Z,986.16
2018-12-29T07:20:36.371Z,986.20
2018-12-29T07:21:36.390Z,986.23
2018-12-29T07:22:36.424Z,986.25
2018-12-29T07:23:36.469Z,986.27
2018-12-29T07:24:36.514Z,986.24
2018-12-29T07:25:37.069Z,986.24
2018-12-29T07:26:37.045Z,986.23
2018-12-29T07:27:36.621Z,986.22
2018-12-29T07:28:36.666Z,986.26
2018-12-29T07:29:38.401Z,986.28
2018-12-29T07:30:36.746Z,986.29
2018-12-29T07:31:36.809Z,986.31
2018-12-29T07:32:36.823Z,986.32
2018-12-29T07:33:36.867Z,986.32
2018-12-29T07:34:36.906Z,986.33
2018-12-29T07:35:36.940Z,986.32
2018-12-29T07:36:37.381Z,986.35
2018-12-29T07:37:37.055Z,986.32
2018-12-29T07:38:37.066Z,986.33
2018-12-29T07:39:37.100Z,986.30
2018-12-29T07:40:37.173Z,986.32
2018-12-29T07:41:38.557Z,986.26
2018-12-29T07:42:37.260Z,986.27
2018-12-29T07:43:37.265Z,986.29
2018-12-29T07:44:37.403Z,986.30
2018-12-29T07:45:37.355Z,986.30
2018-12-29T07:46:37.389Z,986.27
2018-12-29T07:47:37.442Z,986.27
2018-12-29T07:48:37.460Z,986.24
2018-12-29T07:49:37.499Z,986.24
2018-12-29T07:50:38.046Z,986.19
2018-12-29T07:51:37.581Z,986.23
2018-12-29T07:52:38.068Z,986.22
2018-12-29T07:53:37.659Z,986.23
2018-12-29T07:54:37.698Z,986.25
2018-12-29T07:55:37.750Z,986.25
2018-12-29T07:56:37.780Z,986.28
2018-12-29T07:57:37.857Z,986.25
2018-12-29T07:58:37.863Z,986.24
2018-12-29T07:59:37.903Z,986.27
2018-12-29T08:00:37.940Z,986.25
2018-12-29T08:01:37.980Z,986.22
2018-12-29T08:02:38.572Z,986.25
2018-12-29T08:03:38.086Z,986.31
2018-12-29T08:04:38.097Z,986.32
2018-12-29T08:05:38.139Z,986.37
2018-12-29T08:06:38.178Z,986.40
2018-12-29T08:07:38.243Z,986.41
2018-12-29T08:08:38.305Z,986.46
2018-12-29T08:09:38.366Z,986.50
2018-12-29T08:10:38.891Z,986.50
2018-12-29T08:11:38.423Z,986.50
2018-12-29T08:12:38.422Z,986.47
2018-12-29T08:13:38.483Z,986.48
2018-12-29T08:14:38.545Z,986.47
2018-12-29T08:15:38.560Z,986.49
2018-12-29T08:16:38.580Z,986.52
2018-12-29T08:17:38.617Z,986.55
2018-12-29T08:18:38.714Z,986.53
2018-12-29T08:19:38.707Z,986.49
2018-12-29T08:20:38.741Z,986.49
2018-12-29T08:21:38.784Z,986.54
2018-12-29T08:22:38.819Z,986.56
2018-12-29T08:23:38.903Z,986.59
2018-12-29T08:24:38.901Z,986.60
2018-12-29T08:25:38.948Z,986.58
2018-12-29T08:26:38.987Z,986.60
2018-12-29T08:27:40.644Z,986.61
2018-12-29T08:28:39.086Z,986.63
2018-12-29T08:29:40.051Z,986.59
2018-12-29T08:30:39.156Z,986.61
2018-12-29T08:31:39.184Z,986.64
2018-12-29T08:32:39.227Z,986.67
2018-12-29T08:33:39.289Z,986.69
2018-12-29T08:34:39.383Z,986.68
2018-12-29T08:35:39.344Z,986.68
2018-12-29T08:36:39.449Z,986.69
2018-12-29T08:37:39.431Z,986.71
2018-12-29T08:38:39.489Z,986.72
2018-12-29T08:39:39.521Z,986.70
2018-12-29T08:40:39.542Z,986.77
2018-12-29T08:41:39.662Z,986.70
2018-12-29T08:42:39.618Z,986.73
2018-12-29T08:43:39.667Z,986.74
2018-12-29T08:44:39.739Z,986.77
2018-12-29T08:45:39.737Z,986.79
2018-12-29T08:46:39.815Z,986.78
2018-12-29T08:47:39.835Z,986.80
2018-12-29T08:48:39.871Z,986.80
2018-12-29T08:49:41.299Z,986.85
2018-12-29T08:50:39.945Z,986.89
2018-12-29T08:51:39.983Z,986.90
2018-12-29T08:52:40.033Z,986.86
2018-12-29T08:53:40.068Z,986.88
2018-12-29T08:54:40.155Z,986.88
2018-12-29T08:55:40.143Z,986.94
2018-12-29T08:56:40.183Z,986.98
2018-12-29T08:57:41.040Z,986.95
2018-12-29T08:58:40.269Z,986.95
2018-12-29T08:59:40.337Z,986.97
2018-12-29T09:00:40.350Z,986.98
2018-12-29T09:01:40.395Z,986.99
2018-12-29T09:02:40.430Z,986.95
2018-12-29T09:03:40.487Z,986.96
2018-12-29T09:04:40.528Z,986.98
2018-12-29T09:05:40.569Z,986.96
2018-12-29T09:06:40.592Z,986.99
2018-12-29T09:07:40.632Z,986.98
2018-12-29T09:08:42.155Z,987.02
2018-12-29T09:09:40.713Z,987.06
2018-12-29T09:10:40.772Z,987.04
2018-12-29T09:11:40.787Z,987.06
2018-12-29T09:12:40.838Z,987.09
2018-12-29T09:13:40.873Z,987.10
2018-12-29T09:14:40.917Z,987.11
2018-12-29T09:15:40.981Z,987.15
2018-12-29T09:16:40.990Z,987.18
2018-12-29T09:17:41.038Z,987.19
2018-12-29T09:18:41.074Z,987.20
2018-12-29T09:19:41.116Z,987.25
2018-12-29T09:20:41.181Z,987.26
2018-12-29T09:21:41.216Z,987.28
2018-12-29T09:22:41.235Z,987.32
2018-12-29T09:23:41.293Z,987.32
2018-12-29T09:24:41.313Z,987.32
2018-12-29T09:25:41.350Z,987.33
2018-12-29T09:26:41.417Z,987.34
2018-12-29T09:27:41.445Z,987.32
2018-12-29T09:28:43.039Z,987.37
2018-12-29T09:29:41.514Z,987.33
2018-12-29T09:30:41.558Z,987.35
2018-12-29T09:31:41.613Z,987.39
2018-12-29T09:32:41.638Z,987.41
2018-12-29T09:33:41.683Z,987.44
2018-12-29T09:34:41.719Z,987.37
2018-12-29T09:35:41.753Z,987.38
2018-12-29T09:36:41.813Z,987.35
2018-12-29T09:37:41.835Z,987.41
2018-12-29T09:38:41.871Z,987.46
2018-12-29T09:39:41.918Z,987.47
2018-12-29T09:40:41.953Z,987.44
2018-12-29T09:41:42.028Z,987.45
2018-12-29T09:42:42.046Z,987.48
2018-12-29T09:43:42.077Z,987.54
2018-12-29T09:44:42.119Z,987.51
2018-12-29T09:45:42.153Z,987.55
2018-12-29T09:46:42.214Z,987.52
2018-12-29T09:47:42.365Z,987.53
2018-12-29T09:48:42.296Z,987.51
2018-12-29T09:49:42.312Z,987.50
2018-12-29T09:50:42.364Z,987.47
2018-12-29T09:51:42.400Z,987.49
2018-12-29T09:52:42.455Z,987.52
2018-12-29T09:53:42.472Z,987.55
2018-12-29T09:54:43.538Z,987.55
2018-12-29T09:55:42.567Z,987.54
2018-12-29T09:56:42.608Z,987.48
2018-12-29T09:57:42.670Z,987.41
2018-12-29T09:58:42.680Z,987.39
2018-12-29T09:59:42.718Z,987.47
2018-12-29T10:00:42.763Z,987.51
2018-12-29T10:01:42.807Z,987.57
2018-12-29T10:02:42.850Z,987.59
2018-12-29T10:03:42.878Z,987.53
2018-12-29T10:04:42.924Z,987.51
2018-12-29T10:05:42.987Z,987.53
2018-12-29T10:06:43.000Z,987.51
2018-12-29T10:07:43.063Z,987.55
2018-12-29T10:08:43.097Z,987.60
2018-12-29T10:09:43.118Z,987.59
2018-12-29T10:10:43.168Z,987.59
2018-12-29T10:11:43.200Z,987.63
2018-12-29T10:12:43.239Z,987.63
2018-12-29T10:13:43.299Z,987.64
2018-12-29T10:14:43.317Z,987.59
2018-12-29T10:15:43.372Z,987.62
2018-12-29T10:16:43.407Z,987.61
2018-12-29T10:17:43.440Z,987.60
2018-12-29T10:18:43.505Z,987.59
2018-12-29T10:19:44.080Z,987.60
2018-12-29T10:20:43.568Z,987.58
2018-12-29T10:21:45.082Z,987.58
2018-12-29T10:22:44.498Z,987.60
2018-12-29T10:23:43.722Z,987.61
2018-12-29T10:24:43.722Z,987.60
2018-12-29T10:25:43.782Z,987.60
2018-12-29T10:26:43.925Z,987.56
2018-12-29T10:27:43.843Z,987.56
2018-12-29T10:28:43.920Z,987.60
2018-12-29T10:29:43.927Z,987.66
2018-12-29T10:30:43.965Z,987.64
2018-12-29T10:31:44.009Z,987.64
2018-12-29T10:32:44.058Z,987.63
2018-12-29T10:33:44.123Z,987.59
2018-12-29T10:34:44.144Z,987.66
2018-12-29T10:35:44.168Z,987.67
2018-12-29T10:36:44.220Z,987.66
2018-12-29T10:37:44.257Z,987.64
2018-12-29T10:38:44.297Z,987.65
2018-12-29T10:39:44.378Z,987.67
2018-12-29T10:40:44.372Z,987.71
2018-12-29T10:41:44.411Z,987.65
2018-12-29T10:42:44.462Z,987.61
2018-12-29T10:43:44.499Z,987.62
2018-12-29T10:44:44.593Z,987.61
2018-12-29T10:45:44.589Z,987.65
2018-12-29T10:46:44.616Z,987.59
2018-12-29T10:47:44.654Z,987.59
2018-12-29T10:48:44.712Z,987.64
2018-12-29T10:49:44.762Z,987.64
2018-12-29T10:50:44.778Z,987.61
2018-12-29T10:51:44.904Z,987.57
2018-12-29T10:52:44.856Z,987.56
2018-12-29T10:53:44.901Z,987.55
2018-12-29T10:54:44.963Z,987.49
2018-12-29T10:55:44.977Z,987.48
2018-12-29T10:56:45.022Z,987.46
2018-12-29T10:57:45.061Z,987.41
2018-12-29T10:58:45.103Z,987.44
2018-12-29T10:59:45.157Z,987.40
2018-12-29T11:00:45.199Z,987.41
2018-12-29T11:01:45.223Z,987.40
2018-12-29T11:02:45.272Z,987.41
2018-12-29T11:03:45.300Z,987.38
2018-12-29T11:04:45.341Z,987.41
2018-12-29T11:05:45.404Z,987.37
2018-12-29T11:06:45.441Z,987.34
2018-12-29T11:07:45.464Z,987.34
2018-12-29T11:08:45.512Z,987.31
2018-12-29T11:09:45.560Z,987.30
2018-12-29T11:10:45.590Z,987.28
2018-12-29T11:11:45.657Z,987.29
2018-12-29T11:12:45.669Z,987.33
2018-12-29T11:13:45.720Z,987.32
2018-12-29T11:14:45.828Z,987.35
2018-12-29T11:15:45.786Z,987.34
2018-12-29T11:16:45.886Z,987.32
2018-12-29T11:17:45.865Z,987.30
2018-12-29T11:18:45.902Z,987.32
2018-12-29T11:19:45.962Z,987.30
2018-12-29T11:20:46.007Z,987.26
2018-12-29T11:21:46.055Z,987.22
2018-12-29T11:22:46.069Z,987.22
2018-12-29T11:23:46.123Z,987.19
2018-12-29T11:24:46.150Z,987.20
2018-12-29T11:25:46.190Z,987.16
2018-12-29T11:26:46.250Z,987.12
2018-12-29T11:27:46.275Z,987.13
2018-12-29T11:28:46.320Z,987.11
2018-12-29T11:29:46.359Z,987.12
2018-12-29T11:30:47.697Z,987.09
2018-12-29T11:31:46.460Z,987.10
2018-12-29T11:32:46.477Z,987.11
2018-12-29T11:33:46.525Z,987.12
2018-12-29T11:34:46.557Z,987.16
2018-12-29T11:35:46.602Z,987.18
2018-12-29T11:36:46.656Z,987.15
2018-12-29T11:37:46.696Z,987.13
2018-12-29T11:38:46.724Z,987.15
2018-12-29T11:39:46.836Z,987.17
2018-12-29T11:40:46.817Z,987.15
2018-12-29T11:41:46.844Z,987.15
2018-12-29T11:42:46.926Z,987.11
2018-12-29T11:43:46.933Z,987.13
2018-12-29T11:44:46.972Z,987.14
2018-12-29T11:45:47.001Z,987.10
2018-12-29T11:46:47.050Z,987.11
2018-12-29T11:47:49.908Z,987.06
2018-12-29T11:48:47.131Z,987.06
2018-12-29T11:49:47.170Z,987.07
2018-12-29T11:50:47.208Z,987.10
2018-12-29T11:51:47.255Z,987.09
2018-12-29T11:52:47.314Z,987.06
2018-12-29T11:53:47.332Z,987.10
2018-12-29T11:54:47.368Z,987.11
2018-12-29T11:55:47.422Z,987.15
2018-12-29T11:56:47.449Z,987.14
2018-12-29T11:57:47.551Z,987.16
2018-12-29T11:58:47.529Z,987.18
2018-12-29T11:59:47.581Z,987.16
2018-12-29T12:00:50.035Z,987.12
2018-12-29T12:01:47.667Z,987.11
2018-12-29T12:02:47.731Z,987.11
2018-12-29T12:03:47.748Z,987.16
2018-12-29T12:04:47.860Z,987.15
2018-12-29T12:05:47.810Z,987.12
2018-12-29T12:06:47.873Z,987.19
2018-12-29T12:07:47.932Z,987.17
2018-12-29T12:08:47.940Z,987.21
2018-12-29T12:09:47.996Z,987.20
2018-12-29T12:10:48.015Z,987.18
2018-12-29T12:11:48.120Z,987.17
2018-12-29T12:12:48.148Z,987.18
2018-12-29T12:13:48.154Z,987.16
2018-12-29T12:14:48.182Z,987.17
2018-12-29T12:15:48.217Z,987.14
2018-12-29T12:16:48.260Z,987.15
2018-12-29T12:17:48.327Z,987.12
2018-12-29T12:18:48.338Z,987.13
2018-12-29T12:19:48.389Z,987.10
2018-12-29T12:20:48.430Z,987.08
2018-12-29T12:21:48.463Z,987.07
2018-12-29T12:22:48.521Z,987.08
2018-12-29T12:23:48.551Z,987.11
2018-12-29T12:24:48.610Z,987.13
2018-12-29T12:25:48.649Z,987.09
2018-12-29T12:26:48.665Z,987.09
2018-12-29T12:27:48.714Z,987.13
2018-12-29T12:28:48.746Z,987.13